createdAt,value
2023-04-04T00:02:22.951Z,20.10
2023-04-04T00:05:51.793Z,23.30
2023-04-04T00:09:18.954Z,35.70
2023-04-04T00:12:46.657Z,29.70
2023-04-04T00:16:13.821Z,19.00
2023-04-04T00:19:41.268Z,24.70
2023-04-04T00:23:11.273Z,32.60
2023-04-04T00:26:38.329Z,43.10
2023-04-04T00:30:06.854Z,46.90
2023-04-04T00:33:33.965Z,39.50
2023-04-04T00:37:01.516Z,39.10
2023-04-04T00:40:28.704Z,55.30
2023-04-04T00:43:56.663Z,54.00
2023-04-04T00:47:26.023Z,46.80
2023-04-04T00:50:53.683Z,47.70
2023-04-04T00:54:20.735Z,47.00
2023-04-04T00:57:48.284Z,25.70
2023-04-04T01:01:15.685Z,22.30
2023-04-04T01:04:45.864Z,45.40
2023-04-04T01:08:13.315Z,25.80
2023-04-04T01:11:41.505Z,22.80
2023-04-04T01:15:09.940Z,16.80
2023-04-04T01:18:39.702Z,15.90
2023-04-04T01:22:09.653Z,14.80
2023-04-04T01:29:06.879Z,13.40
2023-04-04T01:32:43.811Z,20.30
2023-04-04T01:36:17.377Z,19.10
2023-04-04T01:39:49.526Z,12.70
2023-04-04T01:43:17.057Z,13.20
2023-04-04T01:46:45.207Z,17.70
2023-04-04T01:50:13.896Z,12.20
2023-04-04T01:53:41.042Z,13.80
2023-04-04T01:57:08.590Z,16.60
2023-04-04T02:00:36.514Z,13.50
2023-04-04T02:04:04.054Z,16.20
2023-04-04T02:07:31.417Z,13.70
2023-04-04T02:11:01.537Z,13.60
2023-04-04T02:14:28.929Z,13.90
2023-04-04T02:17:56.988Z,9.60
2023-04-04T02:21:25.639Z,9.70
2023-04-04T02:24:53.899Z,8.90
2023-04-04T02:28:22.713Z,10.20
2023-04-04T02:31:49.727Z,10.00
2023-04-04T02:35:18.009Z,8.50
2023-04-04T02:38:45.307Z,7.30
2023-04-04T02:42:12.350Z,13.30
2023-04-04T02:45:39.660Z,6.00
2023-04-04T02:49:26.148Z,8.40
2023-04-04T02:52:54.941Z,7.60
2023-04-04T02:56:22.125Z,10.00
2023-04-04T02:59:49.256Z,7.50
2023-04-04T03:03:16.903Z,11.70
2023-04-04T03:06:48.309Z,13.00
2023-04-04T03:10:16.356Z,7.50
2023-04-04T03:13:43.409Z,7.50
2023-04-04T03:17:10.893Z,9.30
2023-04-04T03:20:38.115Z,10.10
2023-04-04T03:24:05.983Z,9.70
2023-04-04T03:27:33.630Z,9.90
2023-04-04T03:31:04.159Z,10.30
2023-04-04T03:34:32.010Z,10.60
2023-04-04T03:38:02.142Z,10.40
2023-04-04T03:41:29.270Z,9.00
2023-04-04T03:44:56.420Z,8.50
2023-04-04T03:48:29.406Z,12.10
2023-04-04T03:51:56.503Z,6.30
2023-04-04T03:55:25.032Z,4.60
2023-04-04T03:58:56.055Z,7.80
2023-04-04T04:02:23.579Z,5.60
2023-04-04T04:05:51.516Z,8.30
2023-04-04T04:09:19.235Z,5.40
2023-04-04T04:12:47.598Z,10.00
2023-04-04T04:16:15.037Z,11.70
2023-04-04T04:19:42.527Z,4.10
2023-04-04T04:23:10.175Z,7.40
2023-04-04T04:26:37.336Z,14.20
2023-04-04T04:30:05.245Z,9.60
2023-04-04T04:33:36.317Z,6.40
2023-04-04T04:37:04.643Z,13.30
2023-04-04T04:40:40.328Z,17.70
2023-04-04T04:44:15.905Z,12.40
2023-04-04T04:47:43.537Z,16.30
2023-04-04T04:51:11.996Z,19.10
2023-04-04T04:54:45.540Z,15.10
2023-04-04T04:58:15.083Z,18.90
2023-04-04T05:01:45.397Z,15.60
2023-04-04T05:05:12.600Z,15.80
2023-04-04T05:08:40.066Z,11.60
2023-04-04T05:12:18.094Z,18.50
2023-04-04T05:15:49.044Z,14.30
2023-04-04T05:19:17.516Z,15.70
2023-04-04T05:22:49.640Z,33.90
2023-04-04T05:26:21.593Z,48.90
2023-04-04T05:29:50.390Z,25.40
2023-04-04T05:33:17.880Z,21.10
2023-04-04T05:36:50.891Z,26.10
2023-04-04T05:40:18.697Z,16.40
2023-04-04T05:43:49.768Z,16.20
2023-04-04T05:47:22.105Z,13.90
2023-04-04T05:50:49.501Z,23.80
2023-04-04T05:54:17.774Z,15.30
2023-04-04T05:57:51.786Z,14.20
2023-04-04T06:01:23.602Z,19.70
2023-04-04T06:04:53.474Z,14.90
2023-04-04T06:08:30.688Z,13.10
2023-04-04T06:11:59.241Z,15.20
2023-04-04T06:15:26.000Z,39.60
2023-04-04T06:18:53.107Z,19.00
2023-04-04T06:22:20.205Z,25.50
2023-04-04T06:25:50.278Z,19.80
2023-04-04T06:29:19.724Z,25.30
2023-04-04T06:32:47.010Z,19.50
2023-04-04T06:36:18.620Z,22.50
2023-04-04T06:39:47.809Z,14.80
2023-04-04T06:43:21.728Z,22.80
2023-04-04T06:46:49.155Z,17.60
2023-04-04T06:50:17.064Z,11.90
2023-04-04T06:53:47.311Z,13.90
2023-04-04T06:57:14.221Z,15.10
2023-04-04T07:00:41.373Z,8.20
2023-04-04T07:04:08.818Z,8.10
2023-04-04T07:07:35.710Z,13.90
2023-04-04T07:11:02.857Z,10.60
2023-04-04T07:14:29.939Z,12.40
2023-04-04T07:17:56.977Z,12.10
2023-04-04T07:21:24.809Z,12.10
2023-04-04T07:24:51.735Z,11.00
2023-04-04T07:28:18.827Z,14.20
2023-04-04T07:31:45.864Z,6.50
2023-04-04T07:35:13.986Z,9.00
2023-04-04T07:38:40.826Z,16.10
2023-04-04T07:42:08.014Z,10.20
2023-04-04T07:45:35.295Z,10.60
2023-04-04T07:49:02.602Z,7.30
2023-04-04T07:52:29.814Z,4.30
2023-04-04T07:55:56.781Z,9.30
2023-04-04T07:59:23.875Z,11.30
2023-04-04T08:02:56.510Z,12.40
2023-04-04T08:06:24.431Z,8.90
2023-04-04T08:09:51.794Z,6.60
2023-04-04T08:13:19.360Z,5.20
2023-04-04T08:16:47.820Z,13.30
2023-04-04T08:20:16.521Z,9.80
2023-04-04T08:23:51.799Z,6.70
2023-04-04T08:27:19.575Z,4.00
2023-04-04T08:30:47.417Z,13.20
2023-04-04T08:34:15.741Z,10.20
2023-04-04T08:37:48.189Z,7.00
2023-04-04T08:41:15.795Z,7.50
2023-04-04T08:44:45.871Z,10.30
2023-04-04T08:48:15.320Z,6.50
2023-04-04T08:51:44.788Z,10.00
2023-04-04T08:55:15.510Z,6.60
2023-04-04T08:58:43.458Z,3.60
2023-04-04T09:02:25.700Z,6.60
2023-04-04T09:05:56.423Z,4.60
2023-04-04T09:09:24.321Z,4.70
2023-04-04T09:12:55.500Z,3.40
2023-04-04T09:16:24.899Z,9.70
2023-04-04T09:19:54.495Z,10.60
2023-04-04T09:23:23.652Z,4.70
2023-04-04T09:26:52.995Z,8.10
2023-04-04T09:30:20.638Z,12.00
2023-04-04T09:33:50.484Z,4.50
2023-04-04T09:37:20.004Z,5.70
2023-04-04T09:40:49.602Z,7.90
2023-04-04T09:44:18.429Z,6.80
2023-04-04T09:47:46.081Z,5.30
2023-04-04T09:51:15.708Z,4.20
2023-04-04T09:58:17.528Z,4.10
2023-04-04T10:01:45.800Z,8.30
2023-04-04T10:05:14.874Z,6.70
2023-04-04T10:08:44.200Z,4.00
2023-04-04T10:12:17.332Z,18.30
2023-04-04T10:15:48.225Z,6.70
2023-04-04T10:19:18.762Z,8.40
2023-04-04T10:22:47.497Z,8.30
2023-04-04T10:26:14.971Z,6.90
2023-04-04T10:29:42.058Z,23.40
2023-04-04T10:33:13.431Z,8.00
2023-04-04T10:36:52.670Z,6.50
2023-04-04T10:40:23.112Z,12.40
2023-04-04T10:43:52.419Z,9.60
2023-04-04T10:47:22.403Z,12.80
2023-04-04T10:50:50.322Z,7.60
2023-04-04T10:54:17.627Z,6.90
2023-04-04T10:57:47.622Z,36.30
2023-04-04T11:01:21.012Z,15.30
2023-04-04T11:04:49.970Z,7.00
2023-04-04T11:08:20.108Z,7.10
2023-04-04T11:12:10.903Z,26.60
2023-04-04T11:15:56.519Z,7.00
2023-04-04T11:19:24.161Z,10.00
2023-04-04T11:23:03.922Z,11.80
2023-04-04T11:30:15.759Z,1.60
2023-04-04T11:33:58.214Z,6.20
2023-04-04T11:37:25.613Z,11.90
2023-04-04T11:40:59.435Z,14.10
2023-04-04T11:44:30.800Z,12.00
2023-04-04T11:47:59.620Z,5.90
2023-04-04T11:51:30.452Z,9.00
2023-04-04T11:54:57.869Z,10.10
2023-04-04T11:58:27.580Z,9.40
2023-04-04T12:01:55.900Z,10.60
2023-04-04T12:05:24.173Z,10.60
2023-04-04T12:08:52.150Z,9.10
2023-04-04T12:12:20.207Z,11.40
2023-04-04T12:15:49.705Z,8.40
2023-04-04T12:19:18.401Z,9.10
2023-04-04T12:22:50.107Z,4.30
2023-04-04T12:26:20.305Z,7.30
2023-04-04T12:29:47.990Z,5.70
2023-04-04T12:33:16.677Z,7.70
2023-04-04T12:36:44.734Z,6.30
2023-04-04T12:40:16.645Z,17.10
2023-04-04T12:43:45.400Z,6.50
2023-04-04T12:47:15.911Z,10.60
2023-04-04T12:50:54.689Z,3.30
2023-04-04T12:54:33.008Z,6.50
2023-04-04T12:58:05.055Z,8.30
2023-04-04T13:01:33.430Z,4.10
2023-04-04T13:05:01.480Z,11.10
2023-04-04T13:08:28.897Z,8.80
2023-04-04T13:12:05.676Z,7.90
2023-04-04T13:15:50.671Z,10.50
2023-04-04T13:19:17.974Z,14.20
2023-04-04T13:22:45.429Z,5.10
2023-04-04T13:26:13.147Z,10.30
2023-04-04T13:29:43.570Z,31.60
2023-04-04T13:33:11.397Z,5.30
2023-04-04T13:36:39.494Z,5.50
2023-04-04T13:40:10.265Z,6.80
2023-04-04T13:43:37.754Z,8.70
2023-04-04T13:47:05.484Z,8.90
2023-04-04T13:50:33.914Z,18.90
2023-04-04T13:54:00.965Z,9.50
2023-04-04T13:57:29.108Z,7.20
2023-04-04T14:00:56.432Z,12.80
2023-04-04T14:04:24.347Z,10.00
2023-04-04T14:07:51.775Z,3.40
2023-04-04T14:11:18.816Z,3.80
2023-04-04T14:14:47.484Z,6.00
2023-04-04T14:18:15.609Z,7.90
2023-04-04T14:21:42.491Z,10.10
2023-04-04T14:25:10.632Z,12.70
2023-04-04T14:28:38.723Z,14.70
2023-04-04T14:32:05.933Z,3.80
2023-04-04T14:35:33.094Z,11.70
2023-04-04T14:39:00.254Z,8.50
2023-04-04T14:42:27.306Z,11.50
2023-04-04T14:45:54.376Z,15.40
2023-04-04T14:49:21.509Z,10.80
2023-04-04T14:52:51.311Z,13.00
2023-04-04T14:59:44.388Z,10.70
2023-04-04T15:03:11.326Z,17.90
2023-04-04T15:06:39.419Z,39.70
2023-04-04T15:10:08.546Z,13.80
2023-04-04T15:13:36.340Z,9.60
2023-04-04T15:17:03.525Z,13.30
2023-04-04T15:20:30.710Z,8.20
2023-04-04T15:23:57.639Z,11.40
2023-04-04T15:27:24.608Z,12.70
2023-04-04T15:30:51.492Z,12.30
2023-04-04T15:34:18.497Z,19.10
2023-04-04T15:37:45.794Z,29.20
2023-04-04T15:41:13.075Z,23.20
2023-04-04T15:44:44.316Z,16.90
2023-04-04T15:48:11.443Z,12.90
2023-04-04T15:51:41.125Z,8.10
2023-04-04T15:55:13.543Z,10.50
2023-04-04T15:58:41.083Z,9.30
2023-04-04T16:02:08.945Z,10.60
2023-04-04T16:05:36.106Z,29.40
2023-04-04T16:09:03.089Z,34.10
2023-04-04T16:12:30.417Z,24.70
2023-04-04T16:15:57.314Z,21.30
2023-04-04T16:19:24.418Z,13.80
2023-04-04T16:22:51.598Z,19.40
2023-04-04T16:26:20.854Z,15.30
2023-04-04T16:29:47.687Z,19.10
2023-04-04T16:33:14.569Z,22.90
2023-04-04T16:36:41.409Z,16.70
2023-04-04T16:40:12.748Z,20.10
2023-04-04T16:43:42.990Z,26.10
2023-04-04T16:47:11.046Z,25.90
2023-04-04T16:50:39.359Z,23.80
2023-04-04T16:54:06.374Z,16.20
2023-04-04T16:57:33.495Z,25.00
2023-04-04T17:01:01.346Z,40.10
2023-04-04T17:04:29.230Z,38.80
2023-04-04T17:07:56.793Z,15.60
2023-04-04T17:11:27.354Z,21.00
2023-04-04T17:14:54.645Z,10.70
2023-04-04T17:18:21.609Z,9.20
2023-04-04T17:21:48.676Z,14.00
2023-04-04T17:25:16.146Z,13.40
2023-04-04T17:28:44.665Z,13.50
2023-04-04T17:32:11.954Z,7.30
2023-04-04T17:35:42.160Z,8.20
2023-04-04T17:39:09.775Z,9.10
2023-04-04T17:42:38.322Z,6.70
2023-04-04T17:46:08.554Z,7.40
2023-04-04T17:49:36.733Z,11.30
2023-04-04T17:53:03.649Z,9.00
2023-04-04T17:56:31.261Z,24.80
2023-04-04T17:59:58.444Z,30.30
2023-04-04T18:03:26.624Z,49.80
2023-04-04T18:06:54.705Z,59.10
2023-04-04T18:10:22.178Z,127.60
2023-04-04T18:13:49.441Z,74.50
2023-04-04T18:17:18.386Z,59.20
2023-04-04T18:20:46.544Z,57.30
2023-04-04T18:24:15.651Z,61.60
2023-04-04T18:27:43.867Z,92.60
2023-04-04T18:31:11.839Z,118.00
2023-04-04T18:34:39.829Z,114.60
2023-04-04T18:38:07.798Z,110.20
2023-04-04T18:41:35.253Z,48.20
2023-04-04T18:45:02.878Z,39.10
2023-04-04T18:48:30.387Z,61.00
2023-04-04T18:52:01.099Z,183.30
2023-04-04T18:55:28.150Z,141.50
2023-04-04T18:58:55.991Z,100.30
2023-04-04T19:02:23.836Z,90.80
2023-04-04T19:05:53.185Z,82.00
2023-04-04T19:09:21.944Z,75.70
2023-04-04T19:12:48.930Z,98.90
2023-04-04T19:16:16.063Z,113.50
2023-04-04T19:19:44.236Z,79.80
2023-04-04T19:23:11.647Z,112.70
2023-04-04T19:26:38.680Z,46.80
2023-04-04T19:30:35.569Z,43.40
2023-04-04T19:34:03.918Z,85.70
2023-04-04T19:37:33.731Z,84.70
2023-04-04T19:44:28.071Z,73.70
2023-04-04T19:47:55.287Z,97.60
2023-04-04T19:51:40.331Z,185.80
2023-04-04T19:55:11.238Z,158.80
2023-04-04T19:58:38.973Z,117.40
2023-04-04T20:02:08.298Z,96.30
2023-04-04T20:05:59.151Z,62.70
2023-04-04T20:09:38.399Z,57.60
2023-04-04T20:13:08.825Z,50.60
2023-04-04T20:16:36.104Z,121.40
2023-04-04T20:20:03.125Z,76.50
2023-04-04T20:23:31.428Z,63.90
2023-04-04T20:26:59.983Z,79.30
2023-04-04T20:30:26.843Z,89.80
2023-04-04T20:33:54.040Z,106.80
2023-04-04T20:37:23.667Z,116.80
2023-04-04T20:40:50.948Z,124.50
2023-04-04T20:44:21.458Z,90.90
2023-04-04T20:47:51.947Z,82.70
2023-04-04T20:51:30.930Z,82.30
2023-04-04T20:54:58.723Z,60.80
2023-04-04T20:58:30.315Z,74.70
2023-04-04T21:02:03.119Z,83.50
2023-04-04T21:05:32.264Z,68.00
2023-04-04T21:08:59.313Z,57.60
2023-04-04T21:12:26.320Z,60.50
2023-04-04T21:15:56.448Z,70.40
2023-04-04T21:19:24.463Z,62.70
2023-04-04T21:22:52.773Z,43.30
2023-04-04T21:26:29.577Z,39.40
2023-04-04T21:29:56.719Z,51.20
2023-04-04T21:33:23.745Z,51.40
2023-04-04T21:36:56.453Z,47.40
2023-04-04T21:40:23.894Z,52.60
2023-04-04T21:43:51.348Z,46.60
2023-04-04T21:47:18.329Z,45.20
2023-04-04T21:50:45.105Z,50.80
2023-04-04T21:54:12.830Z,53.50
2023-04-04T21:57:39.739Z,65.20
2023-04-04T22:01:06.615Z,60.80
2023-04-04T22:04:33.837Z,70.70
2023-04-04T22:08:01.837Z,73.60
2023-04-04T22:11:29.624Z,83.20
2023-04-04T22:14:58.879Z,82.50
2023-04-04T22:18:30.125Z,67.40
2023-04-04T22:21:58.821Z,59.50
2023-04-04T22:25:26.328Z,55.90
2023-04-04T22:28:53.304Z,63.90
2023-04-04T22:32:20.111Z,62.70
2023-04-04T22:35:46.895Z,63.50
2023-04-04T22:39:15.935Z,73.70
2023-04-04T22:42:43.361Z,83.00
2023-04-04T22:46:10.360Z,80.30
2023-04-04T22:49:38.105Z,73.70
2023-04-04T22:53:05.328Z,75.30
2023-04-04T22:56:32.786Z,76.30
2023-04-04T23:00:00.677Z,74.00
2023-04-04T23:03:27.612Z,87.30
2023-04-04T23:06:55.554Z,75.80
2023-04-04T23:10:22.928Z,113.50
2023-04-04T23:13:49.869Z,129.50
2023-04-04T23:17:17.132Z,118.50
2023-04-04T23:20:44.348Z,112.10
2023-04-04T23:24:11.728Z,91.90
2023-04-04T23:27:38.740Z,180.70
2023-04-04T23:31:06.453Z,316.60
2023-04-04T23:34:33.463Z,463.60
2023-04-04T23:38:00.464Z,218.60
2023-04-04T23:41:27.793Z,133.50
2023-04-04T23:44:54.756Z,237.80
2023-04-04T23:48:21.751Z,258.70
2023-04-04T23:51:48.693Z,139.90
2023-04-04T23:55:17.119Z,151.30
2023-04-04T23:58:44.413Z,362.50
